sensor_id;sensor_type;location;lat;lon;timestamp;P1;durP1;ratioP1;P2;durP2;ratioP2
34741;SDS011;20968;42.696;23.360;2023-04-24T00:01:38;8.50;;;4.78;;
34741;SDS011;20968;42.696;23.360;2023-04-24T00:04:12;6.65;;;4.00;;
34741;SDS011;20968;42.696;23.360;2023-04-24T00:07:01;3.53;;;3.15;;
34741;SDS011;20968;42.696;23.360;2023-04-24T00:09:26;5.15;;;2.70;;
34741;SDS011;20968;42.696;23.360;2023-04-24T00:11:52;4.28;;;3.38;;
34741;SDS011;20968;42.696;23.360;2023-04-24T00:14:35;4.40;;;3.10;;
34741;SDS011;20968;42.696;23.360;2023-04-24T00:17:01;4.05;;;2.88;;
34741;SDS011;20968;42.696;23.360;2023-04-24T00:19:27;5.10;;;3.45;;
34741;SDS011;20968;42.696;23.360;2023-04-24T00:21:54;5.35;;;3.20;;
34741;SDS011;20968;42.696;23.360;2023-04-24T00:24:20;6.65;;;2.55;;
34741;SDS011;20968;42.696;23.360;2023-04-24T00:26:49;9.90;;;2.78;;
34741;SDS011;20968;42.696;23.360;2023-04-24T00:29:23;3.45;;;3.05;;
34741;SDS011;20968;42.696;23.360;2023-04-24T00:32:12;6.13;;;3.70;;
34741;SDS011;20968;42.696;23.360;2023-04-24T00:34:38;6.50;;;3.10;;
34741;SDS011;20968;42.696;23.360;2023-04-24T00:37:04;3.45;;;2.95;;
34741;SDS011;20968;42.696;23.360;2023-04-24T00:39:30;4.68;;;3.38;;
34741;SDS011;20968;42.696;23.360;2023-04-24T00:41:56;6.13;;;3.13;;
34741;SDS011;20968;42.696;23.360;2023-04-24T00:44:21;5.10;;;2.67;;
34741;SDS011;20968;42.696;23.360;2023-04-24T00:46:47;6.90;;;3.33;;
34741;SDS011;20968;42.696;23.360;2023-04-24T00:49:17;4.88;;;3.05;;
34741;SDS011;20968;42.696;23.360;2023-04-24T00:51:44;3.83;;;2.97;;
34741;SDS011;20968;42.696;23.360;2023-04-24T00:54:23;5.53;;;3.17;;
34741;SDS011;20968;42.696;23.360;2023-04-24T00:56:49;4.35;;;3.13;;
34741;SDS011;20968;42.696;23.360;2023-04-24T00:59:32;8.23;;;3.45;;
34741;SDS011;20968;42.696;23.360;2023-04-24T01:01:58;5.03;;;2.88;;
34741;SDS011;20968;42.696;23.360;2023-04-24T01:04:23;7.10;;;3.30;;
34741;SDS011;20968;42.696;23.360;2023-04-24T01:07:19;4.93;;;2.70;;
34741;SDS011;20968;42.696;23.360;2023-04-24T01:09:45;8.18;;;3.25;;
34741;SDS011;20968;42.696;23.360;2023-04-24T01:12:14;3.80;;;2.35;;
34741;SDS011;20968;42.696;23.360;2023-04-24T01:14:40;5.20;;;3.35;;
34741;SDS011;20968;42.696;23.360;2023-04-24T01:17:05;4.28;;;3.63;;
34741;SDS011;20968;42.696;23.360;2023-04-24T01:19:32;9.10;;;3.67;;
34741;SDS011;20968;42.696;23.360;2023-04-24T01:21:58;11.27;;;3.38;;
34741;SDS011;20968;42.696;23.360;2023-04-24T01:24:24;7.18;;;3.30;;
34741;SDS011;20968;42.696;23.360;2023-04-24T01:26:49;8.32;;;4.03;;
34741;SDS011;20968;42.696;23.360;2023-04-24T01:29:15;4.97;;;3.45;;
34741;SDS011;20968;42.696;23.360;2023-04-24T01:31:41;5.30;;;3.75;;
34741;SDS011;20968;42.696;23.360;2023-04-24T01:34:06;7.25;;;3.70;;
34741;SDS011;20968;42.696;23.360;2023-04-24T01:36:33;5.85;;;4.28;;
34741;SDS011;20968;42.696;23.360;2023-04-24T01:39:01;5.65;;;3.75;;
34741;SDS011;20968;42.696;23.360;2023-04-24T01:41:27;4.63;;;3.40;;
34741;SDS011;20968;42.696;23.360;2023-04-24T01:43:53;4.68;;;3.70;;
34741;SDS011;20968;42.696;23.360;2023-04-24T01:46:19;9.65;;;3.95;;
34741;SDS011;20968;42.696;23.360;2023-04-24T01:48:45;5.80;;;3.90;;
34741;SDS011;20968;42.696;23.360;2023-04-24T01:51:11;5.40;;;3.38;;
34741;SDS011;20968;42.696;23.360;2023-04-24T01:53:36;7.20;;;3.88;;
34741;SDS011;20968;42.696;23.360;2023-04-24T01:56:01;8.07;;;4.65;;
34741;SDS011;20968;42.696;23.360;2023-04-24T01:58:27;7.40;;;4.13;;
34741;SDS011;20968;42.696;23.360;2023-04-24T02:00:55;6.90;;;4.03;;
34741;SDS011;20968;42.696;23.360;2023-04-24T02:03:21;6.40;;;4.63;;
34741;SDS011;20968;42.696;23.360;2023-04-24T02:05:47;11.93;;;4.50;;
34741;SDS011;20968;42.696;23.360;2023-04-24T02:08:12;6.25;;;4.25;;
34741;SDS011;20968;42.696;23.360;2023-04-24T02:10:37;5.15;;;3.85;;
34741;SDS011;20968;42.696;23.360;2023-04-24T02:13:03;7.55;;;4.07;;
34741;SDS011;20968;42.696;23.360;2023-04-24T02:15:29;5.93;;;3.97;;
34741;SDS011;20968;42.696;23.360;2023-04-24T02:17:55;7.13;;;3.45;;
34741;SDS011;20968;42.696;23.360;2023-04-24T02:20:26;4.82;;;3.75;;
34741;SDS011;20968;42.696;23.360;2023-04-24T02:22:53;6.47;;;3.97;;
34741;SDS011;20968;42.696;23.360;2023-04-24T02:25:18;5.30;;;3.53;;
34741;SDS011;20968;42.696;23.360;2023-04-24T02:27:43;6.80;;;4.25;;
34741;SDS011;20968;42.696;23.360;2023-04-24T02:30:10;7.03;;;4.10;;
34741;SDS011;20968;42.696;23.360;2023-04-24T02:32:36;7.35;;;3.92;;
34741;SDS011;20968;42.696;23.360;2023-04-24T02:35:01;7.75;;;4.43;;
34741;SDS011;20968;42.696;23.360;2023-04-24T02:37:27;9.00;;;4.68;;
34741;SDS011;20968;42.696;23.360;2023-04-24T02:39:52;7.35;;;3.97;;
34741;SDS011;20968;42.696;23.360;2023-04-24T02:42:18;8.15;;;4.32;;
34741;SDS011;20968;42.696;23.360;2023-04-24T02:44:43;6.40;;;4.30;;
34741;SDS011;20968;42.696;23.360;2023-04-24T02:47:08;10.40;;;4.35;;
34741;SDS011;20968;42.696;23.360;2023-04-24T02:49:34;11.43;;;4.40;;
34741;SDS011;20968;42.696;23.360;2023-04-24T02:51:59;12.57;;;4.60;;
34741;SDS011;20968;42.696;23.360;2023-04-24T02:54:25;5.97;;;3.97;;
34741;SDS011;20968;42.696;23.360;2023-04-24T02:56:50;6.53;;;4.25;;
34741;SDS011;20968;42.696;23.360;2023-04-24T02:59:16;7.57;;;4.28;;
34741;SDS011;20968;42.696;23.360;2023-04-24T03:01:41;5.55;;;3.90;;
34741;SDS011;20968;42.696;23.360;2023-04-24T03:04:07;11.05;;;4.95;;
34741;SDS011;20968;42.696;23.360;2023-04-24T03:06:32;10.43;;;4.60;;
34741;SDS011;20968;42.696;23.360;2023-04-24T03:09:00;6.97;;;4.50;;
34741;SDS011;20968;42.696;23.360;2023-04-24T03:11:25;5.60;;;4.13;;
34741;SDS011;20968;42.696;23.360;2023-04-24T03:13:51;9.93;;;4.45;;
34741;SDS011;20968;42.696;23.360;2023-04-24T03:16:16;7.85;;;4.95;;
34741;SDS011;20968;42.696;23.360;2023-04-24T03:18:42;6.75;;;4.20;;
34741;SDS011;20968;42.696;23.360;2023-04-24T03:21:08;6.88;;;4.45;;
34741;SDS011;20968;42.696;23.360;2023-04-24T03:23:34;6.63;;;3.80;;
34741;SDS011;20968;42.696;23.360;2023-04-24T03:25:59;11.77;;;5.03;;
34741;SDS011;20968;42.696;23.360;2023-04-24T03:28:25;8.90;;;4.05;;
34741;SDS011;20968;42.696;23.360;2023-04-24T03:30:50;5.80;;;3.85;;
34741;SDS011;20968;42.696;23.360;2023-04-24T03:33:17;7.68;;;4.00;;
34741;SDS011;20968;42.696;23.360;2023-04-24T03:35:42;5.53;;;4.13;;
34741;SDS011;20968;42.696;23.360;2023-04-24T03:38:07;7.57;;;4.07;;
34741;SDS011;20968;42.696;23.360;2023-04-24T03:40:33;11.63;;;4.38;;
34741;SDS011;20968;42.696;23.360;2023-04-24T03:42:59;9.75;;;3.92;;
34741;SDS011;20968;42.696;23.360;2023-04-24T03:45:24;8.30;;;4.53;;
34741;SDS011;20968;42.696;23.360;2023-04-24T03:47:50;7.68;;;5.07;;
34741;SDS011;20968;42.696;23.360;2023-04-24T03:50:15;5.38;;;3.60;;
34741;SDS011;20968;42.696;23.360;2023-04-24T03:52:41;11.18;;;4.30;;
34741;SDS011;20968;42.696;23.360;2023-04-24T03:55:06;8.85;;;4.53;;
34741;SDS011;20968;42.696;23.360;2023-04-24T03:57:32;9.25;;;4.50;;
34741;SDS011;20968;42.696;23.360;2023-04-24T03:59:57;5.68;;;4.28;;
34741;SDS011;20968;42.696;23.360;2023-04-24T04:02:23;3.88;;;3.28;;
34741;SDS011;20968;42.696;23.360;2023-04-24T04:04:48;6.38;;;3.70;;
34741;SDS011;20968;42.696;23.360;2023-04-24T04:07:13;5.82;;;3.33;;
34741;SDS011;20968;42.696;23.360;2023-04-24T04:09:39;4.05;;;3.65;;
34741;SDS011;20968;42.696;23.360;2023-04-24T04:12:04;13.52;;;4.28;;
34741;SDS011;20968;42.696;23.360;2023-04-24T04:14:30;3.17;;;2.58;;
34741;SDS011;20968;42.696;23.360;2023-04-24T04:16:56;3.92;;;2.38;;
34741;SDS011;20968;42.696;23.360;2023-04-24T04:19:22;5.72;;;2.70;;
34741;SDS011;20968;42.696;23.360;2023-04-24T04:21:47;7.30;;;3.80;;
34741;SDS011;20968;42.696;23.360;2023-04-24T04:24:18;6.10;;;3.10;;
34741;SDS011;20968;42.696;23.360;2023-04-24T04:26:51;11.43;;;6.13;;
34741;SDS011;20968;42.696;23.360;2023-04-24T04:29:17;12.68;;;6.82;;
34741;SDS011;20968;42.696;23.360;2023-04-24T04:31:43;8.73;;;4.85;;
34741;SDS011;20968;42.696;23.360;2023-04-24T04:34:09;11.50;;;5.35;;
34741;SDS011;20968;42.696;23.360;2023-04-24T04:36:35;6.72;;;3.95;;
34741;SDS011;20968;42.696;23.360;2023-04-24T04:39:02;8.82;;;4.20;;
34741;SDS011;20968;42.696;23.360;2023-04-24T04:41:28;8.15;;;5.38;;
34741;SDS011;20968;42.696;23.360;2023-04-24T04:43:53;8.70;;;4.40;;
34741;SDS011;20968;42.696;23.360;2023-04-24T04:46:18;7.93;;;5.20;;
34741;SDS011;20968;42.696;23.360;2023-04-24T04:48:44;9.68;;;5.32;;
34741;SDS011;20968;42.696;23.360;2023-04-24T04:51:10;6.20;;;4.13;;
34741;SDS011;20968;42.696;23.360;2023-04-24T04:53:36;8.73;;;4.63;;
34741;SDS011;20968;42.696;23.360;2023-04-24T04:56:01;9.68;;;4.15;;
34741;SDS011;20968;42.696;23.360;2023-04-24T04:58:27;6.07;;;3.53;;
34741;SDS011;20968;42.696;23.360;2023-04-24T05:00:52;7.25;;;4.40;;
34741;SDS011;20968;42.696;23.360;2023-04-24T05:03:18;8.15;;;4.15;;
34741;SDS011;20968;42.696;23.360;2023-04-24T05:05:43;11.70;;;5.25;;
34741;SDS011;20968;42.696;23.360;2023-04-24T05:08:08;16.67;;;5.57;;
34741;SDS011;20968;42.696;23.360;2023-04-24T05:10:34;11.43;;;5.80;;
34741;SDS011;20968;42.696;23.360;2023-04-24T05:13:01;19.63;;;7.13;;
34741;SDS011;20968;42.696;23.360;2023-04-24T05:15:27;23.23;;;8.10;;
34741;SDS011;20968;42.696;23.360;2023-04-24T05:17:53;16.15;;;8.15;;
34741;SDS011;20968;42.696;23.360;2023-04-24T05:20:18;9.55;;;6.45;;
34741;SDS011;20968;42.696;23.360;2023-04-24T05:22:43;14.20;;;6.45;;
34741;SDS011;20968;42.696;23.360;2023-04-24T05:25:09;15.07;;;7.05;;
34741;SDS011;20968;42.696;23.360;2023-04-24T05:27:34;13.20;;;6.43;;
34741;SDS011;20968;42.696;23.360;2023-04-24T05:30:00;11.13;;;5.75;;
34741;SDS011;20968;42.696;23.360;2023-04-24T05:32:25;10.10;;;5.60;;
34741;SDS011;20968;42.696;23.360;2023-04-24T05:34:52;13.52;;;5.57;;
34741;SDS011;20968;42.696;23.360;2023-04-24T05:37:17;13.68;;;5.95;;
34741;SDS011;20968;42.696;23.360;2023-04-24T05:39:42;8.48;;;5.18;;
34741;SDS011;20968;42.696;23.360;2023-04-24T05:45:24;11.10;;;5.35;;
34741;SDS011;20968;42.696;23.360;2023-04-24T05:47:50;14.88;;;5.70;;
34741;SDS011;20968;42.696;23.360;2023-04-24T05:50:17;11.52;;;6.05;;
34741;SDS011;20968;42.696;23.360;2023-04-24T05:52:42;11.98;;;5.60;;
34741;SDS011;20968;42.696;23.360;2023-04-24T05:55:08;9.32;;;5.35;;
34741;SDS011;20968;42.696;23.360;2023-04-24T05:57:33;14.13;;;5.95;;
34741;SDS011;20968;42.696;23.360;2023-04-24T05:59:58;11.50;;;5.45;;
34741;SDS011;20968;42.696;23.360;2023-04-24T06:02:24;12.05;;;5.60;;
34741;SDS011;20968;42.696;23.360;2023-04-24T06:04:49;9.70;;;5.50;;
34741;SDS011;20968;42.696;23.360;2023-04-24T06:07:16;11.27;;;5.65;;
34741;SDS011;20968;42.696;23.360;2023-04-24T06:09:45;14.82;;;5.93;;
34741;SDS011;20968;42.696;23.360;2023-04-24T06:12:10;8.05;;;6.22;;
34741;SDS011;20968;42.696;23.360;2023-04-24T06:14:36;11.35;;;6.20;;
34741;SDS011;20968;42.696;23.360;2023-04-24T06:17:01;18.35;;;4.82;;
34741;SDS011;20968;42.696;23.360;2023-04-24T06:19:27;9.20;;;5.32;;
34741;SDS011;20968;42.696;23.360;2023-04-24T06:21:52;15.05;;;5.43;;
34741;SDS011;20968;42.696;23.360;2023-04-24T06:24:17;14.55;;;5.85;;
34741;SDS011;20968;42.696;23.360;2023-04-24T06:26:43;9.10;;;5.22;;
34741;SDS011;20968;42.696;23.360;2023-04-24T06:29:08;16.65;;;5.43;;
34741;SDS011;20968;42.696;23.360;2023-04-24T06:31:34;8.02;;;5.65;;
34741;SDS011;20968;42.696;23.360;2023-04-24T06:34:02;15.73;;;5.20;;
34741;SDS011;20968;42.696;23.360;2023-04-24T06:36:28;9.55;;;5.72;;
34741;SDS011;20968;42.696;23.360;2023-04-24T06:38:53;17.30;;;5.88;;
34741;SDS011;20968;42.696;23.360;2023-04-24T06:41:34;9.07;;;5.50;;
34741;SDS011;20968;42.696;23.360;2023-04-24T06:44:05;15.32;;;5.63;;
34741;SDS011;20968;42.696;23.360;2023-04-24T06:46:31;13.30;;;5.60;;
34741;SDS011;20968;42.696;23.360;2023-04-24T06:48:56;11.80;;;6.50;;
34741;SDS011;20968;42.696;23.360;2023-04-24T06:51:47;7.70;;;5.50;;
34741;SDS011;20968;42.696;23.360;2023-04-24T06:54:13;10.07;;;6.70;;
34741;SDS011;20968;42.696;23.360;2023-04-24T06:59:31;14.88;;;5.88;;
34741;SDS011;20968;42.696;23.360;2023-04-24T07:02:06;13.07;;;5.95;;
34741;SDS011;20968;42.696;23.360;2023-04-24T07:04:31;8.75;;;5.20;;
34741;SDS011;20968;42.696;23.360;2023-04-24T07:06:57;10.77;;;6.53;;
34741;SDS011;20968;42.696;23.360;2023-04-24T07:09:23;11.70;;;5.53;;
34741;SDS011;20968;42.696;23.360;2023-04-24T07:11:50;14.23;;;5.88;;
34741;SDS011;20968;42.696;23.360;2023-04-24T07:14:16;12.43;;;5.20;;
34741;SDS011;20968;42.696;23.360;2023-04-24T07:16:42;8.38;;;5.50;;
34741;SDS011;20968;42.696;23.360;2023-04-24T07:19:08;16.05;;;6.15;;
34741;SDS011;20968;42.696;23.360;2023-04-24T07:21:34;14.02;;;6.93;;
34741;SDS011;20968;42.696;23.360;2023-04-24T07:24:00;10.10;;;5.47;;
34741;SDS011;20968;42.696;23.360;2023-04-24T07:26:26;10.77;;;6.50;;
34741;SDS011;20968;42.696;23.360;2023-04-24T07:28:53;8.38;;;6.07;;
34741;SDS011;20968;42.696;23.360;2023-04-24T07:31:19;6.68;;;4.13;;
34741;SDS011;20968;42.696;23.360;2023-04-24T07:33:44;9.82;;;6.35;;
34741;SDS011;20968;42.696;23.360;2023-04-24T07:36:11;12.63;;;5.95;;
34741;SDS011;20968;42.696;23.360;2023-04-24T07:38:41;15.40;;;5.53;;
34741;SDS011;20968;42.696;23.360;2023-04-24T07:41:12;10.20;;;5.63;;
34741;SDS011;20968;42.696;23.360;2023-04-24T07:43:38;11.13;;;6.47;;
34741;SDS011;20968;42.696;23.360;2023-04-24T07:46:04;15.82;;;5.82;;
34741;SDS011;20968;42.696;23.360;2023-04-24T07:48:29;8.02;;;4.72;;
34741;SDS011;20968;42.696;23.360;2023-04-24T07:50:59;6.63;;;4.57;;
34741;SDS011;20968;42.696;23.360;2023-04-24T07:53:24;8.88;;;5.63;;
34741;SDS011;20968;42.696;23.360;2023-04-24T07:55:50;7.60;;;4.40;;
34741;SDS011;20968;42.696;23.360;2023-04-24T07:58:15;10.77;;;4.85;;
34741;SDS011;20968;42.696;23.360;2023-04-24T08:00:41;8.70;;;4.93;;
34741;SDS011;20968;42.696;23.360;2023-04-24T08:03:06;10.20;;;4.72;;
34741;SDS011;20968;42.696;23.360;2023-04-24T08:05:31;4.53;;;3.67;;
34741;SDS011;20968;42.696;23.360;2023-04-24T08:08:00;5.88;;;3.63;;
34741;SDS011;20968;42.696;23.360;2023-04-24T08:10:28;4.10;;;3.30;;
34741;SDS011;20968;42.696;23.360;2023-04-24T08:12:53;4.88;;;3.78;;
34741;SDS011;20968;42.696;23.360;2023-04-24T08:15:20;5.85;;;3.30;;
34741;SDS011;20968;42.696;23.360;2023-04-24T08:17:46;4.15;;;3.10;;
34741;SDS011;20968;42.696;23.360;2023-04-24T08:20:11;4.50;;;3.85;;
34741;SDS011;20968;42.696;23.360;2023-04-24T08:22:49;5.57;;;2.88;;
34741;SDS011;20968;42.696;23.360;2023-04-24T08:25:25;7.43;;;3.83;;
34741;SDS011;20968;42.696;23.360;2023-04-24T08:27:51;6.32;;;3.80;;
34741;SDS011;20968;42.696;23.360;2023-04-24T08:30:21;8.68;;;3.83;;
34741;SDS011;20968;42.696;23.360;2023-04-24T08:32:50;8.98;;;3.55;;
34741;SDS011;20968;42.696;23.360;2023-04-24T08:35:16;10.68;;;3.95;;
34741;SDS011;20968;42.696;23.360;2023-04-24T08:37:41;7.32;;;4.20;;
34741;SDS011;20968;42.696;23.360;2023-04-24T08:40:12;5.50;;;3.78;;
34741;SDS011;20968;42.696;23.360;2023-04-24T08:42:40;4.72;;;3.40;;
34741;SDS011;20968;42.696;23.360;2023-04-24T08:45:08;5.75;;;3.78;;
34741;SDS011;20968;42.696;23.360;2023-04-24T08:47:35;5.82;;;3.97;;
34741;SDS011;20968;42.696;23.360;2023-04-24T08:50:03;7.70;;;4.35;;
34741;SDS011;20968;42.696;23.360;2023-04-24T08:52:43;7.78;;;3.42;;
34741;SDS011;20968;42.696;23.360;2023-04-24T08:55:09;4.78;;;3.00;;
34741;SDS011;20968;42.696;23.360;2023-04-24T08:57:35;3.85;;;2.80;;
34741;SDS011;20968;42.696;23.360;2023-04-24T09:00:10;5.45;;;3.17;;
34741;SDS011;20968;42.696;23.360;2023-04-24T09:02:36;6.22;;;3.45;;
34741;SDS011;20968;42.696;23.360;2023-04-24T09:05:02;5.38;;;3.05;;
34741;SDS011;20968;42.696;23.360;2023-04-24T09:07:28;10.07;;;3.28;;
34741;SDS011;20968;42.696;23.360;2023-04-24T09:09:58;4.80;;;3.08;;
34741;SDS011;20968;42.696;23.360;2023-04-24T09:14:54;6.22;;;3.63;;
34741;SDS011;20968;42.696;23.360;2023-04-24T09:17:20;7.07;;;3.58;;
34741;SDS011;20968;42.696;23.360;2023-04-24T09:19:47;6.05;;;2.83;;
34741;SDS011;20968;42.696;23.360;2023-04-24T09:22:13;4.82;;;3.22;;
34741;SDS011;20968;42.696;23.360;2023-04-24T09:24:40;7.25;;;3.70;;
34741;SDS011;20968;42.696;23.360;2023-04-24T09:27:06;3.80;;;3.00;;
34741;SDS011;20968;42.696;23.360;2023-04-24T09:29:35;5.60;;;3.40;;
34741;SDS011;20968;42.696;23.360;2023-04-24T09:32:19;6.18;;;3.22;;
34741;SDS011;20968;42.696;23.360;2023-04-24T09:34:47;5.95;;;3.42;;
34741;SDS011;20968;42.696;23.360;2023-04-24T09:37:26;6.25;;;2.95;;
34741;SDS011;20968;42.696;23.360;2023-04-24T09:40:15;6.13;;;3.45;;
34741;SDS011;20968;42.696;23.360;2023-04-24T09:42:51;9.40;;;2.72;;
34741;SDS011;20968;42.696;23.360;2023-04-24T09:49:07;4.07;;;3.08;;
34741;SDS011;20968;42.696;23.360;2023-04-24T09:52:21;6.75;;;3.28;;
34741;SDS011;20968;42.696;23.360;2023-04-24T09:55:20;5.60;;;2.72;;
34741;SDS011;20968;42.696;23.360;2023-04-24T09:57:57;4.72;;;3.33;;
34741;SDS011;20968;42.696;23.360;2023-04-24T10:00:31;6.85;;;3.10;;
34741;SDS011;20968;42.696;23.360;2023-04-24T10:02:58;6.32;;;2.53;;
34741;SDS011;20968;42.696;23.360;2023-04-24T10:05:29;3.22;;;2.92;;
34741;SDS011;20968;42.696;23.360;2023-04-24T10:07:57;6.75;;;2.55;;
34741;SDS011;20968;42.696;23.360;2023-04-24T10:10:23;9.23;;;4.05;;
34741;SDS011;20968;42.696;23.360;2023-04-24T10:12:48;7.43;;;3.53;;
34741;SDS011;20968;42.696;23.360;2023-04-24T10:15:22;4.40;;;3.15;;
34741;SDS011;20968;42.696;23.360;2023-04-24T10:18:09;5.82;;;3.05;;
34741;SDS011;20968;42.696;23.360;2023-04-24T10:21:07;4.70;;;3.88;;
34741;SDS011;20968;42.696;23.360;2023-04-24T10:24:07;6.95;;;3.47;;
34741;SDS011;20968;42.696;23.360;2023-04-24T10:29:57;8.05;;;3.53;;
34741;SDS011;20968;42.696;23.360;2023-04-24T10:32:42;3.08;;;2.58;;
34741;SDS011;20968;42.696;23.360;2023-04-24T10:35:52;4.00;;;3.17;;
34741;SDS011;20968;42.696;23.360;2023-04-24T10:38:40;6.75;;;3.13;;
34741;SDS011;20968;42.696;23.360;2023-04-24T10:41:12;3.15;;;2.80;;
34741;SDS011;20968;42.696;23.360;2023-04-24T10:43:44;5.35;;;3.28;;
34741;SDS011;20968;42.696;23.360;2023-04-24T10:46:10;4.47;;;2.67;;
34741;SDS011;20968;42.696;23.360;2023-04-24T10:48:42;7.65;;;3.03;;
34741;SDS011;20968;42.696;23.360;2023-04-24T10:51:11;8.07;;;2.88;;
34741;SDS011;20968;42.696;23.360;2023-04-24T10:53:39;3.88;;;2.53;;
34741;SDS011;20968;42.696;23.360;2023-04-24T10:58:41;5.38;;;2.38;;
34741;SDS011;20968;42.696;23.360;2023-04-24T11:03:54;5.22;;;2.88;;
34741;SDS011;20968;42.696;23.360;2023-04-24T11:06:29;5.47;;;3.42;;
34741;SDS011;20968;42.696;23.360;2023-04-24T11:09:03;6.57;;;3.03;;
34741;SDS011;20968;42.696;23.360;2023-04-24T11:11:45;6.28;;;2.85;;
34741;SDS011;20968;42.696;23.360;2023-04-24T11:17:31;2.67;;;2.33;;
34741;SDS011;20968;42.696;23.360;2023-04-24T11:20:05;4.40;;;2.92;;
34741;SDS011;20968;42.696;23.360;2023-04-24T11:22:37;3.88;;;2.80;;
34741;SDS011;20968;42.696;23.360;2023-04-24T11:25:07;6.57;;;2.80;;
34741;SDS011;20968;42.696;23.360;2023-04-24T11:27:41;10.48;;;3.95;;
34741;SDS011;20968;42.696;23.360;2023-04-24T11:30:08;8.88;;;3.58;;
34741;SDS011;20968;42.696;23.360;2023-04-24T11:32:42;4.85;;;3.17;;
34741;SDS011;20968;42.696;23.360;2023-04-24T11:36:07;7.18;;;4.05;;
34741;SDS011;20968;42.696;23.360;2023-04-24T11:38:32;9.57;;;2.97;;
34741;SDS011;20968;42.696;23.360;2023-04-24T11:41:00;4.70;;;3.13;;
34741;SDS011;20968;42.696;23.360;2023-04-24T11:46:52;5.30;;;3.03;;
34741;SDS011;20968;42.696;23.360;2023-04-24T11:49:50;4.82;;;3.20;;
34741;SDS011;20968;42.696;23.360;2023-04-24T11:52:15;4.78;;;3.17;;
34741;SDS011;20968;42.696;23.360;2023-04-24T11:54:48;4.03;;;2.97;;
34741;SDS011;20968;42.696;23.360;2023-04-24T11:57:24;2.33;;;2.13;;
34741;SDS011;20968;42.696;23.360;2023-04-24T11:59:58;3.45;;;2.40;;
34741;SDS011;20968;42.696;23.360;2023-04-24T12:02:24;2.20;;;2.00;;
34741;SDS011;20968;42.696;23.360;2023-04-24T12:04:54;2.55;;;2.35;;
34741;SDS011;20968;42.696;23.360;2023-04-24T12:07:20;3.53;;;2.40;;
34741;SDS011;20968;42.696;23.360;2023-04-24T12:09:47;4.15;;;2.92;;
34741;SDS011;20968;42.696;23.360;2023-04-24T12:14:49;10.93;;;5.82;;
34741;SDS011;20968;42.696;23.360;2023-04-24T12:17:51;5.90;;;2.22;;
34741;SDS011;20968;42.696;23.360;2023-04-24T12:20:10;5.25;;;2.60;;
34741;SDS011;20968;42.696;23.360;2023-04-24T12:22:58;3.97;;;2.30;;
34741;SDS011;20968;42.696;23.360;2023-04-24T12:25:24;4.43;;;2.53;;
34741;SDS011;20968;42.696;23.360;2023-04-24T12:30:20;4.30;;;2.53;;
34741;SDS011;20968;42.696;23.360;2023-04-24T12:32:47;3.65;;;3.03;;
34741;SDS011;20968;42.696;23.360;2023-04-24T12:35:19;10.57;;;3.67;;
34741;SDS011;20968;42.696;23.360;2023-04-24T12:37:46;3.65;;;2.60;;
34741;SDS011;20968;42.696;23.360;2023-04-24T12:40:12;5.75;;;3.22;;
34741;SDS011;20968;42.696;23.360;2023-04-24T12:42:43;2.65;;;2.15;;
34741;SDS011;20968;42.696;23.360;2023-04-24T12:45:10;2.92;;;2.10;;
34741;SDS011;20968;42.696;23.360;2023-04-24T12:47:37;3.42;;;2.70;;
34741;SDS011;20968;42.696;23.360;2023-04-24T12:50:04;3.15;;;2.20;;
34741;SDS011;20968;42.696;23.360;2023-04-24T12:52:31;2.80;;;2.50;;
34741;SDS011;20968;42.696;23.360;2023-04-24T12:54:57;2.95;;;1.77;;
34741;SDS011;20968;42.696;23.360;2023-04-24T12:57:49;2.72;;;2.10;;
34741;SDS011;20968;42.696;23.360;2023-04-24T13:00:15;2.53;;;2.33;;
34741;SDS011;20968;42.696;23.360;2023-04-24T13:02:41;6.28;;;1.70;;
34741;SDS011;20968;42.696;23.360;2023-04-24T13:05:06;2.97;;;2.13;;
34741;SDS011;20968;42.696;23.360;2023-04-24T13:07:40;8.07;;;2.30;;
34741;SDS011;20968;42.696;23.360;2023-04-24T13:10:07;4.07;;;2.60;;
34741;SDS011;20968;42.696;23.360;2023-04-24T13:12:34;4.82;;;2.85;;
34741;SDS011;20968;42.696;23.360;2023-04-24T13:15:01;2.40;;;2.20;;
34741;SDS011;20968;42.696;23.360;2023-04-24T13:17:47;8.27;;;3.20;;
34741;SDS011;20968;42.696;23.360;2023-04-24T13:20:12;5.47;;;2.38;;
34741;SDS011;20968;42.696;23.360;2023-04-24T13:22:37;5.10;;;2.58;;
34741;SDS011;20968;42.696;23.360;2023-04-24T13:25:03;7.35;;;2.88;;
34741;SDS011;20968;42.696;23.360;2023-04-24T13:27:31;8.30;;;5.13;;
34741;SDS011;20968;42.696;23.360;2023-04-24T13:29:56;2.90;;;2.33;;
34741;SDS011;20968;42.696;23.360;2023-04-24T13:32:22;12.20;;;2.63;;
34741;SDS011;20968;42.696;23.360;2023-04-24T13:34:47;6.35;;;2.50;;
34741;SDS011;20968;42.696;23.360;2023-04-24T13:37:13;3.17;;;2.88;;
34741;SDS011;20968;42.696;23.360;2023-04-24T13:39:38;3.25;;;2.45;;
34741;SDS011;20968;42.696;23.360;2023-04-24T13:42:04;4.22;;;2.35;;
34741;SDS011;20968;42.696;23.360;2023-04-24T13:44:30;2.67;;;2.17;;
34741;SDS011;20968;42.696;23.360;2023-04-24T13:46:56;7.20;;;3.60;;
34741;SDS011;20968;42.696;23.360;2023-04-24T13:49:23;2.83;;;2.63;;
34741;SDS011;20968;42.696;23.360;2023-04-24T13:51:50;5.30;;;3.78;;
34741;SDS011;20968;42.696;23.360;2023-04-24T13:54:18;3.85;;;2.85;;
34741;SDS011;20968;42.696;23.360;2023-04-24T13:57:11;4.70;;;3.17;;
34741;SDS011;20968;42.696;23.360;2023-04-24T13:59:45;4.63;;;2.78;;
34741;SDS011;20968;42.696;23.360;2023-04-24T14:02:11;5.03;;;3.20;;
34741;SDS011;20968;42.696;23.360;2023-04-24T14:04:38;6.20;;;3.03;;
34741;SDS011;20968;42.696;23.360;2023-04-24T14:07:07;5.60;;;3.28;;
34741;SDS011;20968;42.696;23.360;2023-04-24T14:09:33;10.23;;;3.25;;
34741;SDS011;20968;42.696;23.360;2023-04-24T14:11:59;6.63;;;4.03;;
34741;SDS011;20968;42.696;23.360;2023-04-24T14:14:26;3.72;;;2.50;;
34741;SDS011;20968;42.696;23.360;2023-04-24T14:16:52;5.93;;;2.83;;
34741;SDS011;20968;42.696;23.360;2023-04-24T14:19:17;4.70;;;3.15;;
34741;SDS011;20968;42.696;23.360;2023-04-24T14:21:43;2.88;;;2.58;;
34741;SDS011;20968;42.696;23.360;2023-04-24T14:24:08;4.03;;;2.97;;
34741;SDS011;20968;42.696;23.360;2023-04-24T14:26:34;4.90;;;2.58;;
34741;SDS011;20968;42.696;23.360;2023-04-24T14:28:59;3.47;;;2.22;;
34741;SDS011;20968;42.696;23.360;2023-04-24T14:31:25;7.85;;;2.72;;
34741;SDS011;20968;42.696;23.360;2023-04-24T14:33:52;2.65;;;1.98;;
34741;SDS011;20968;42.696;23.360;2023-04-24T14:36:18;3.28;;;2.28;;
34741;SDS011;20968;42.696;23.360;2023-04-24T14:38:43;2.72;;;2.40;;
34741;SDS011;20968;42.696;23.360;2023-04-24T14:41:10;3.83;;;2.75;;
34741;SDS011;20968;42.696;23.360;2023-04-24T14:43:36;3.33;;;2.60;;
34741;SDS011;20968;42.696;23.360;2023-04-24T14:46:10;4.13;;;2.60;;
34741;SDS011;20968;42.696;23.360;2023-04-24T14:48:44;3.45;;;2.65;;
34741;SDS011;20968;42.696;23.360;2023-04-24T14:51:09;4.05;;;2.53;;
34741;SDS011;20968;42.696;23.360;2023-04-24T14:53:34;7.35;;;2.63;;
34741;SDS011;20968;42.696;23.360;2023-04-24T14:56:00;4.80;;;2.42;;
34741;SDS011;20968;42.696;23.360;2023-04-24T14:58:25;5.95;;;2.40;;
34741;SDS011;20968;42.696;23.360;2023-04-24T15:00:51;6.85;;;2.78;;
34741;SDS011;20968;42.696;23.360;2023-04-24T15:03:19;5.20;;;3.30;;
34741;SDS011;20968;42.696;23.360;2023-04-24T15:05:46;7.55;;;3.80;;
34741;SDS011;20968;42.696;23.360;2023-04-24T15:08:11;6.85;;;3.65;;
34741;SDS011;20968;42.696;23.360;2023-04-24T15:10:37;3.40;;;2.63;;
34741;SDS011;20968;42.696;23.360;2023-04-24T15:13:03;4.97;;;3.22;;